South Haven, Michigan
Current Conditions -  °F | °C
As of 4:55 AM on Monday 22 Dec 2014 (Local Time) from KLWA Reporting Station
Clear Clear  
Wind Chill: -5°   Ceiling: Unl
Heat Index: -1°   Visibility: 7mi
Dew Point: -4°   Wind: 8mph
Humidity: 82%   Direction: 130°SE
Pressure: 30.02"   Gusts: NA
Location:  42.4°N, 86.27°W
Report Text: KLWA 220955Z AUTO 13007KT 7SM CLR M01/M04 A3002 RMK AO2 T10101038
Loading
Personal Weather Stations






























Interactive Weather Map New forecast layout! Learn more

10-Day Weather Forecast

Advertisements
Track Severe Weather on mobile